Time;durP1;ratioP1;P1;durP2;ratioP2;P2;SDS_P1;SDS_P2;PMS_P1;PMS_P2;Temp;Humidity;BMP_temperature;BMP_pressure;BME280_temperature;BME280_humidity;BME280_pressure;Samples;Min_cycle;Max_cycle;Signal;HPM_P1;HPM_P2
2022/04/17 00:02:33;;;;;;;6.53;3.27;;;;;;;-1.49;100.00;98039.69;10498385;28;20187;-58
2022/04/17 00:07:34;;;;;;;4.77;3.50;;;;;;;-1.48;100.00;98043.94;10497777;28;20211;-54
2022/04/17 00:12:34;;;;;;;4.43;3.13;;;;;;;-1.49;100.00;98043.06;10498095;28;20203;-56
2022/04/17 00:17:37;;;;;;;5.03;3.03;;;;;;;-1.59;100.00;98033.13;10496847;28;20235;-55
2022/04/17 00:22:37;;;;;;;5.53;3.57;;;;;;;-1.69;100.00;98027.47;10497432;28;20720;-55
2022/04/17 00:27:40;;;;;;;5.10;3.60;;;;;;;-1.67;100.00;98031.66;10497252;28;20226;-56
2022/04/17 00:32:40;;;;;;;5.63;3.73;;;;;;;-1.69;100.00;98032.59;10497121;28;20321;-58
2022/04/17 00:37:41;;;;;;;6.20;3.50;;;;;;;-1.72;100.00;98027.56;10497059;28;20760;-57
2022/04/17 00:42:41;;;;;;;6.60;4.20;;;;;;;-1.79;100.00;98032.06;10496452;28;20274;-57
2022/04/17 00:47:41;;;;;;;3.70;2.93;;;;;;;-1.75;100.00;98023.34;10496615;28;20211;-56
2022/04/17 00:52:42;;;;;;;4.50;4.03;;;;;;;-1.77;100.00;98024.28;10496078;28;20222;-56
2022/04/17 00:57:43;;;;;;;6.30;3.77;;;;;;;-1.84;100.00;98008.22;10478433;28;20223;-59
2022/04/17 01:02:44;;;;;;;6.50;4.00;;;;;;;-1.86;100.00;98008.25;10495476;28;20195;-57
2022/04/17 01:07:45;;;;;;;6.77;4.37;;;;;;;-1.97;100.00;98007.75;10495209;28;20210;-56
2022/04/17 01:12:45;;;;;;;7.33;4.30;;;;;;;-1.91;100.00;98006.75;10495687;28;20191;-57
2022/04/17 01:17:46;;;;;;;7.90;4.83;;;;;;;-2.01;100.00;98004.44;10476773;28;20235;-57
2022/04/17 01:22:50;;;;;;;5.53;4.13;;;;;;;-2.06;100.00;97997.78;10494433;28;20654;-55
2022/04/17 01:27:50;;;;;;;7.57;4.43;;;;;;;-2.04;100.00;97994.25;10494737;28;20212;-59
2022/04/17 01:32:50;;;;;;;6.20;3.70;;;;;;;-2.08;100.00;98002.09;10494500;28;20217;-60
2022/04/17 01:37:51;;;;;;;7.93;4.33;;;;;;;-2.10;100.00;97994.44;10494563;28;20769;-56
2022/04/17 01:42:51;;;;;;;9.13;4.90;;;;;;;-2.13;100.00;97999.66;10493654;28;20199;-58
2022/04/17 01:47:53;;;;;;;9.73;4.67;;;;;;;-2.15;100.00;97997.16;10494270;28;20222;-57
2022/04/17 01:52:54;;;;;;;7.97;3.97;;;;;;;-2.18;100.00;97994.66;10494094;28;20569;-56
2022/04/17 01:57:54;;;;;;;11.43;5.73;;;;;;;-2.23;100.00;97988.84;10493596;28;20223;-55
2022/04/17 02:02:54;;;;;;;9.90;5.40;;;;;;;-2.23;100.00;97986.28;10494037;28;20666;-57
2022/04/17 02:07:54;;;;;;;7.60;5.13;;;;;;;-2.25;100.00;97966.66;10493268;28;20738;-53
2022/04/17 02:12:55;;;;;;;11.40;4.27;;;;;;;-2.32;100.00;97971.16;10493905;28;20215;-58
2022/04/17 02:17:55;;;;;;;7.77;5.30;;;;;;;-2.29;100.00;97972.78;10493060;28;20235;-56
2022/04/17 02:22:57;;;;;;;5.57;4.37;;;;;;;-2.26;100.00;97958.13;10479125;22;20239;-56
2022/04/17 02:27:57;;;;;;;8.67;5.07;;;;;;;-2.29;100.00;97958.22;10450335;28;20215;-53
2022/04/17 02:32:57;;;;;;;11.33;5.53;;;;;;;-2.35;100.00;97948.16;10451064;28;20299;-53
2022/04/17 02:37:58;;;;;;;6.73;4.40;;;;;;;-2.27;100.00;97945.34;10457214;28;20227;-51
2022/04/17 02:42:59;;;;;;;9.20;5.03;;;;;;;-2.30;100.00;97951.41;10459101;28;20215;-51
2022/04/17 02:47:59;;;;;;;8.40;4.97;;;;;;;-2.30;100.00;97942.88;10459728;28;20195;-54
2022/04/17 02:52:59;;;;;;;9.87;5.33;;;;;;;-2.31;100.00;97930.91;10458794;28;20211;-58
2022/04/17 02:58:00;;;;;;;12.73;5.37;;;;;;;-2.30;100.00;97938.56;10458595;28;20365;-57
2022/04/17 03:08:19;;;;;;;7.13;4.77;;;;;;;-2.27;100.00;97937.66;10458157;28;20191;-52
2022/04/17 03:13:20;;;;;;;10.73;5.17;;;;;;;-2.30;100.00;97933.44;10457715;28;20307;-55
2022/04/17 03:18:20;;;;;;;8.00;4.47;;;;;;;-2.34;100.00;97940.41;10457698;28;20285;-51
2022/04/17 03:23:20;;;;;;;9.63;5.37;;;;;;;-2.33;100.00;97938.66;10457537;28;20239;-51
2022/04/17 03:28:21;;;;;;;8.67;5.43;;;;;;;-2.40;100.00;97935.47;10457823;28;20320;-52
2022/04/17 03:33:21;;;;;;;7.53;5.27;;;;;;;-2.37;100.00;97931.97;10457437;28;20208;-54
2022/04/17 03:38:22;;;;;;;7.50;4.17;;;;;;;-2.28;100.00;97941.09;10457301;28;20227;-51
2022/04/17 03:43:23;;;;;;;10.37;5.70;;;;;;;-2.37;100.00;97937.94;10457138;28;20230;-51
2022/04/17 03:48:24;;;;;;;8.37;4.40;;;;;;;-2.37;100.00;97937.09;10456773;28;20728;-54
2022/04/17 03:53:25;;;;;;;7.50;5.17;;;;;;;-2.52;100.00;97943.53;10456780;28;20212;-51
2022/04/17 03:58:25;;;;;;;11.20;5.40;;;;;;;-2.52;100.00;97948.66;10456423;28;20216;-51
2022/04/17 04:03:26;;;;;;;9.03;5.03;;;;;;;-2.45;100.00;97946.72;10456517;28;20738;-51
2022/04/17 04:08:27;;;;;;;9.00;5.60;;;;;;;-2.43;100.00;97935.56;10456336;28;20195;-51
2022/04/17 04:13:27;;;;;;;8.73;5.60;;;;;;;-2.40;100.00;97932.88;10456502;28;20208;-54
2022/04/17 04:18:27;;;;;;;9.83;5.37;;;;;;;-2.43;100.00;97934.72;10455806;28;20244;-52
2022/04/17 04:23:31;;;;;;;9.13;4.47;;;;;;;-2.36;100.00;97928.50;10455594;28;20235;-52
2022/04/17 04:28:37;;;;;;;10.13;5.73;;;;;;;-2.35;100.00;97943.00;10455738;28;20192;-53
2022/04/17 04:33:39;;;;;;;8.57;5.00;;;;;;;-2.39;100.00;97943.97;10455558;28;20211;-54
2022/04/17 04:38:40;;;;;;;11.73;5.43;;;;;;;-2.36;100.00;97938.75;10455240;28;20590;-59
2022/04/17 04:43:40;;;;;;;6.47;4.70;;;;;;;-2.37;100.00;97935.38;10455036;28;20222;-51
2022/04/17 04:54:02;;;;;;;5.47;4.07;;;;;;;-2.31;100.00;97934.34;10454474;28;20196;-52
2022/04/17 04:59:04;;;;;;;9.83;5.07;;;;;;;-2.25;100.00;97925.59;10453907;28;20604;-55
2022/04/17 05:04:04;;;;;;;11.13;5.83;;;;;;;-2.27;100.00;97940.22;10454023;28;20183;-52
2022/04/17 05:09:05;;;;;;;6.70;5.50;;;;;;;-2.20;100.00;97929.72;10454064;28;20215;-53
2022/04/17 05:14:06;;;;;;;115.67;36.90;;;;;;;-2.03;100.00;97936.88;10453862;28;20588;-50
2022/04/17 05:19:20;;;;;;;8.80;5.90;;;;;;;-1.95;100.00;97922.97;10449482;28;20630;-53
2022/04/17 05:24:21;;;;;;;8.33;5.17;;;;;;;-1.80;100.00;97919.91;10466879;28;20211;-55
2022/04/17 05:29:21;;;;;;;16.27;9.90;;;;;;;-1.68;100.00;97916.09;10469609;28;20643;-58
2022/04/17 05:34:21;;;;;;;12.20;7.23;;;;;;;-1.45;100.00;97923.88;10468929;28;20191;-55
2022/04/17 05:39:22;;;;;;;11.47;5.93;;;;;;;-1.18;100.00;97923.84;10471784;28;20309;-57
2022/04/17 05:44:22;;;;;;;8.53;5.17;;;;;;;-0.84;100.00;97919.19;10468813;28;20191;-54
2022/04/17 05:49:23;;;;;;;7.40;5.27;;;;;;;-0.36;100.00;97907.97;10471420;28;20299;-51
2022/04/17 05:54:24;;;;;;;8.27;4.53;;;;;;;0.46;100.00;97900.41;10450590;28;20191;-59
2022/04/17 05:59:24;;;;;;;7.17;4.50;;;;;;;0.73;100.00;97894.13;10440498;28;20714;-58
2022/04/17 06:04:25;;;;;;;8.17;4.37;;;;;;;0.91;100.00;97890.75;10465829;28;20197;-56
2022/04/17 06:09:25;;;;;;;4.80;3.60;;;;;;;1.41;100.00;97879.91;10450459;28;20215;-58
2022/04/17 06:14:25;;;;;;;6.87;4.17;;;;;;;2.25;100.00;97850.94;10411156;28;20226;-58
2022/04/17 06:19:26;;;;;;;8.40;4.77;;;;;;;2.74;100.00;97844.19;10410650;28;20224;-57
2022/04/17 06:24:26;;;;;;;8.43;4.90;;;;;;;3.61;94.52;97814.50;10410229;28;20238;-57
2022/04/17 06:29:27;;;;;;;8.00;4.87;;;;;;;4.16;86.18;97759.50;10410504;28;20227;-58
2022/04/17 06:34:27;;;;;;;10.53;6.10;;;;;;;3.87;84.60;97759.44;10410457;28;20204;-60
2022/04/17 06:39:27;;;;;;;9.33;5.67;;;;;;;4.92;77.74;97682.25;10410059;28;20209;-51
2022/04/17 06:44:28;;;;;;;9.97;5.97;;;;;;;4.99;75.50;97667.94;10409627;28;20203;-53
2022/04/17 06:49:28;;;;;;;8.23;5.13;;;;;;;5.78;72.48;97647.25;10410202;28;20313;-52
2022/04/17 06:54:28;;;;;;;10.47;4.60;;;;;;;6.39;70.95;97645.66;10410029;28;20185;-52
2022/04/17 06:59:29;;;;;;;5.60;3.87;;;;;;;7.76;67.25;97616.63;10410208;28;20220;-57
2022/04/17 07:04:29;;;;;;;7.73;4.33;;;;;;;7.99;60.88;97534.03;10410051;28;20235;-58
2022/04/17 07:09:29;;;;;;;6.37;3.97;;;;;;;8.27;58.39;97499.66;10409965;28;20220;-53
2022/04/17 07:14:30;;;;;;;6.10;4.20;;;;;;;7.71;61.56;97591.88;10409747;28;20569;-56
2022/04/17 07:19:30;;;;;;;6.10;4.10;;;;;;;7.89;61.42;97600.06;10409110;28;20235;-59
2022/04/17 07:24:30;;;;;;;9.40;4.33;;;;;;;7.35;63.34;97633.63;10451595;28;20204;-61
2022/04/17 07:29:31;;;;;;;6.97;4.50;;;;;;;8.21;62.22;97628.91;10459619;28;20270;-59
2022/04/17 07:34:31;;;;;;;10.07;4.03;;;;;;;7.85;58.56;97534.25;10457771;28;20187;-56
2022/04/17 07:39:31;;;;;;;5.80;3.80;;;;;;;7.70;61.39;97630.13;10457460;28;20216;-54
2022/04/17 07:44:32;;;;;;;6.70;3.70;;;;;;;8.85;58.06;97564.69;10447352;28;20310;-59
2022/04/17 07:49:33;;;;;;;6.20;3.87;;;;;;;8.57;59.62;97596.50;10451148;28;20227;-56
2022/04/17 07:54:33;;;;;;;6.00;3.47;;;;;;;9.07;57.43;97563.78;10452627;28;20229;-57
2022/04/17 07:59:33;;;;;;;4.33;2.80;;;;;;;9.98;56.07;97545.72;10451904;28;20295;-52
2022/04/17 08:04:34;;;;;;;8.17;4.37;;;;;;;9.48;57.07;97572.63;10452712;28;20208;-55
2022/04/17 08:09:34;;;;;;;5.13;3.20;;;;;;;9.75;54.24;97498.78;10453072;28;20230;-61
2022/04/17 08:14:34;;;;;;;8.63;3.83;;;;;;;11.43;56.51;97620.31;10452128;28;20219;-61
2022/04/17 08:19:35;;;;;;;5.47;3.22;;;;;;;11.10;50.93;97468.63;10451942;28;20228;-62
2022/04/17 08:24:36;;;;;;;5.00;2.88;;;;;;;11.28;50.02;97466.94;10451546;28;20202;-57
2022/04/17 08:29:36;;;;;;;7.60;3.70;;;;;;;11.83;46.92;97376.09;10452897;28;20220;-57
2022/04/17 08:34:36;;;;;;;7.22;3.80;;;;;;;10.98;47.84;97395.41;10469766;23;20257;-59
2022/04/17 08:39:37;;;;;;;3.55;2.45;;;;;;;10.76;48.51;97438.47;10458044;28;20564;-59
2022/04/17 08:44:37;;;;;;;3.60;2.22;;;;;;;11.48;44.65;97340.94;10454966;28;20584;-60
2022/04/17 08:49:38;;;;;;;3.22;1.92;;;;;;;10.75;48.87;97435.97;10455384;28;20771;-58
2022/04/17 08:54:38;;;;;;;2.47;2.05;;;;;;;10.44;48.15;97418.63;10435495;28;20690;-60
2022/04/17 08:59:39;;;;;;;2.60;1.90;;;;;;;10.27;46.65;97366.91;10452016;28;20199;-59
2022/04/17 09:04:43;;;;;;;2.53;1.60;;;;;;;10.77;44.67;97350.22;10452042;28;20353;-56
2022/04/17 09:09:50;;;;;;;3.15;1.70;;;;;;;10.50;46.13;97372.72;10453768;28;20297;-57
2022/04/17 09:14:53;;;;;;;4.68;2.03;;;;;;;11.24;43.85;97339.69;10453773;28;20239;-59
2022/04/17 09:19:53;;;;;;;5.53;2.35;;;;;;;11.33;44.44;97372.91;10453900;28;20267;-56
2022/04/17 09:24:53;;;;;;;2.80;1.83;;;;;;;11.85;44.80;97379.41;10453507;28;20287;-58
2022/04/17 09:29:54;;;;;;;2.58;2.25;;;;;;;10.32;47.44;97412.69;10453700;28;20235;-58
2022/04/17 09:34:56;;;;;;;3.63;2.78;;;;;;;10.85;47.50;97436.81;10452842;28;20722;-57
2022/04/17 09:40:07;;;;;;;7.35;2.53;;;;;;;11.70;47.87;97449.94;10453108;28;20192;-56
2022/04/17 09:45:07;;;;;;;4.50;2.72;;;;;;;11.12;47.25;97414.25;10450890;28;20239;-57
2022/04/17 09:50:08;;;;;;;3.55;2.60;;;;;;;11.21;46.55;97392.44;10447355;28;20299;-57
2022/04/17 09:55:09;;;;;;;3.90;2.33;;;;;;;11.76;47.06;97404.72;10438419;28;20698;-60
2022/04/17 10:00:18;;;;;;;2.83;2.60;;;;;;;11.15;48.29;97448.06;10419708;28;20231;-59
2022/04/17 10:05:20;;;;;;;4.57;3.28;;;;;;;11.49;48.33;97426.56;10430199;28;20204;-61
2022/04/17 10:10:20;;;;;;;7.20;3.15;;;;;;;10.93;50.92;97496.41;10432180;28;20251;-61
2022/04/17 10:15:20;;;;;;;3.33;2.60;;;;;;;12.03;48.41;97442.47;10440744;28;20239;-61
2022/04/17 10:20:21;;;;;;;4.63;2.88;;;;;;;12.16;47.00;97386.97;10451690;28;20192;-60
2022/04/17 10:25:22;;;;;;;5.10;2.40;;;;;;;13.70;43.94;97342.56;10430917;28;20200;-60
2022/04/17 10:31:00;;;;;;;3.33;2.60;;;;;;;13.37;48.59;97466.97;10451371;28;20307;-60
2022/04/17 10:36:06;;;;;;;5.28;3.20;;;;;;;14.23;45.92;97399.31;10402610;28;20267;-60
2022/04/17 10:41:08;;;;;;;4.15;2.63;;;;;;;14.73;42.23;97299.13;10448654;28;20200;-55
2022/04/17 10:46:19;;;;;;;4.95;3.30;;;;;;;15.22;43.66;97356.22;10451330;28;20219;-59
2022/04/17 10:51:24;;;;;;;3.53;2.78;;;;;;;13.53;44.28;97300.38;10448393;28;20216;-58
2022/04/17 10:56:24;;;;;;;7.07;3.70;;;;;;;14.71;45.59;97393.44;10450338;28;20204;-59
2022/04/17 11:01:49;;;;;;;3.58;2.70;;;;;;;14.60;40.39;97205.56;10459009;28;20361;-62
2022/04/17 11:07:03;;;;;;;2.80;2.30;;;;;;;14.78;42.39;97284.47;10455999;28;20925;-62
2022/04/17 11:12:18;;;;;;;2.63;1.63;;;;;;;14.94;41.67;97265.09;10458861;28;20220;-59
2022/04/17 11:17:21;;;;;;;4.85;2.03;;;;;;;16.57;40.80;97295.97;10458261;28;20211;-63
2022/04/17 11:22:27;;;;;;;4.47;1.80;;;;;;;16.43;40.72;97275.59;10458344;28;20214;-62
2022/04/17 11:27:41;;;;;;;2.13;1.65;;;;;;;16.22;39.71;97236.63;10458041;28;20210;-59
2022/04/17 11:32:41;;;;;;;4.55;1.60;;;;;;;14.23;40.71;97206.94;10458012;28;20245;-58
2022/04/17 11:37:53;;;;;;;1.70;1.40;;;;;;;13.81;42.77;97260.59;10457386;28;20255;-63
2022/04/17 11:42:54;;;;;;;2.25;1.40;;;;;;;14.82;41.28;97241.91;10458180;28;20565;-59
2022/04/17 11:47:55;;;;;;;1.23;1.13;;;;;;;15.70;39.59;97201.19;10457305;28;20255;-60
2022/04/17 11:53:03;;;;;;;2.58;1.80;;;;;;;16.04;37.74;97150.53;10456898;28;20219;-61
2022/04/17 11:58:09;;;;;;;3.85;1.35;;;;;;;14.77;41.13;97208.13;10457360;28;20208;-58
2022/04/17 12:03:11;;;;;;;1.98;1.35;;;;;;;15.48;41.28;97250.34;10456875;28;20241;-59
2022/04/17 12:08:13;;;;;;;2.92;2.03;;;;;;;16.60;39.96;97236.59;10456334;28;20219;-62
2022/04/17 12:13:18;;;;;;;3.90;1.85;;;;;;;16.80;39.65;97201.63;10456123;28;20183;-63
2022/04/17 12:18:19;;;;;;;2.70;1.80;;;;;;;16.12;40.30;97194.56;10438239;28;20299;-58
2022/04/17 12:23:21;;;;;;;3.10;1.80;;;;;;;16.80;40.72;97243.97;10455485;28;20271;-57
2022/04/17 12:28:22;;;;;;;2.80;1.70;;;;;;;16.56;40.46;97214.16;10455663;28;20596;-61
2022/04/17 12:33:24;;;;;;;6.07;4.45;;;;;;;15.54;42.35;97231.16;10456018;28;20188;-61
2022/04/17 12:38:24;;;;;;;2.10;1.90;;;;;;;15.21;42.47;97225.28;10454906;28;20232;-63
2022/04/17 12:43:29;;;;;;;3.05;1.45;;;;;;;15.18;42.69;97226.44;10455507;28;20196;-62
2022/04/17 12:48:32;;;;;;;5.68;1.60;;;;;;;14.37;43.09;97204.59;10454763;28;20216;-62
2022/04/17 12:53:43;;;;;;;2.35;1.77;;;;;;;14.21;44.00;97222.09;10455251;28;20642;-62
2022/04/17 12:58:53;;;;;;;3.95;1.67;;;;;;;15.37;43.04;97233.09;10454990;28;20267;-60
2022/04/17 13:04:16;;;;;;;2.30;1.90;;;;;;;13.84;46.06;97257.69;10454722;28;20281;-60
2022/04/17 13:09:18;;;;;;;2.92;1.70;;;;;;;12.89;48.47;97304.38;10454136;28;20347;-61
2022/04/17 13:14:21;;;;;;;2.85;1.75;;;;;;;13.76;45.86;97262.91;10454210;28;20283;-61
2022/04/17 13:19:24;;;;;;;4.22;1.90;;;;;;;13.93;45.38;97250.59;10453649;28;20650;-60
2022/04/17 13:24:26;;;;;;;1.92;1.50;;;;;;;15.66;43.98;97237.69;10453761;28;20208;-62
2022/04/17 13:29:26;;;;;;;3.10;1.58;;;;;;;16.35;42.50;97217.50;10453581;28;20215;-59
2022/04/17 13:34:29;;;;;;;3.70;2.20;;;;;;;16.03;42.07;97191.22;10453133;28;20296;-60
2022/04/17 13:39:29;;;;;;;2.28;1.45;;;;;;;17.19;37.53;97076.09;10452740;28;20187;-60
2022/04/17 13:44:30;;;;;;;2.50;2.03;;;;;;;16.21;40.08;97086.94;10452795;28;20211;-59
2022/04/17 13:49:30;;;;;;;1.98;1.50;;;;;;;15.00;40.79;97076.28;10452810;28;20224;-59
2022/04/17 13:54:32;;;;;;;3.35;1.58;;;;;;;13.92;45.92;97220.00;10452761;28;20216;-61
2022/04/17 13:59:33;;;;;;;2.80;2.00;;;;;;;13.29;47.25;97237.13;10452345;28;20199;-61
2022/04/17 14:04:33;;;;;;;3.17;1.85;;;;;;;15.16;43.28;97173.00;10452446;28;20345;-59
2022/04/17 14:09:35;;;;;;;6.47;3.55;;;;;;;16.38;41.08;97120.09;10452453;28;20926;-60
2022/04/17 14:14:36;;;;;;;13.43;8.30;;;;;;;15.79;41.82;97110.34;10452075;28;20220;-59
2022/04/17 14:19:37;;;;;;;6.28;3.28;;;;;;;14.56;43.64;97129.56;10452229;28;20206;-58
2022/04/17 14:24:37;;;;;;;2.00;1.77;;;;;;;16.39;41.21;97105.91;10451413;28;20301;-61
2022/04/17 14:29:37;;;;;;;2.72;1.60;;;;;;;15.95;40.28;97050.41;10452708;28;20313;-60
2022/04/17 14:34:38;;;;;;;3.58;1.98;;;;;;;14.38;42.53;97048.94;10459736;28;20243;-60
2022/04/17 14:39:39;;;;;;;2.80;1.85;;;;;;;13.22;44.52;97088.81;10515536;22;20328;-60
2022/04/17 14:44:39;;;;;;;2.40;1.42;;;;;;;11.52;49.02;97163.88;10499349;28;20195;-59
2022/04/17 14:49:42;;;;;;;4.70;1.60;;;;;;;11.35;49.46;97178.66;10499723;28;20211;-61
2022/04/17 14:54:43;;;;;;;33.50;12.18;;;;;;;11.18;51.31;97222.22;10504095;28;20207;-59
2022/04/17 14:59:43;;;;;;;8.77;3.92;;;;;;;11.14;52.32;97262.84;10507830;28;20257;-60
2022/04/17 15:04:43;;;;;;;5.78;3.65;;;;;;;12.08;48.55;97173.19;10504664;28;20195;-59
2022/04/17 15:09:44;;;;;;;14.63;7.28;;;;;;;12.33;48.90;97189.09;10499245;28;20650;-58
2022/04/17 15:14:44;;;;;;;3.10;2.22;;;;;;;11.52;51.36;97226.88;10499564;28;20598;-60
2022/04/17 15:19:44;;;;;;;2.45;2.10;;;;;;;11.51;50.45;97206.84;10499740;28;20693;-57
2022/04/17 15:24:45;;;;;;;3.13;1.80;;;;;;;11.38;49.82;97157.38;10499202;28;20564;-61
2022/04/17 15:29:45;;;;;;;4.55;1.50;;;;;;;11.83;51.01;97226.47;10499178;28;20636;-56
2022/04/17 15:34:46;;;;;;;5.55;2.13;;;;;;;11.74;50.65;97202.75;10498561;28;20191;-59
2022/04/17 15:39:46;;;;;;;4.10;1.60;;;;;;;11.65;50.33;97190.53;10498771;28;20223;-60
2022/04/17 15:50:06;;;;;;;4.13;2.13;;;;;;;11.27;52.12;97215.28;10452101;28;20239;-59
2022/04/17 15:55:06;;;;;;;3.22;1.88;;;;;;;11.02;52.13;97202.72;10452802;28;20187;-56
2022/04/17 16:00:07;;;;;;;8.02;3.38;;;;;;;10.88;51.83;97192.75;10456793;28;20258;-55
2022/04/17 16:05:15;;;;;;;10.05;3.17;;;;;;;10.96;51.62;97179.72;10456419;28;20314;-57
2022/04/17 16:10:16;;;;;;;2.88;1.90;;;;;;;11.02;51.97;97183.56;10456022;28;20224;-57
2022/04/17 16:15:16;;;;;;;2.38;2.03;;;;;;;10.59;52.49;97178.00;10456209;28;20196;-57
2022/04/17 16:20:17;;;;;;;1.88;1.65;;;;;;;10.64;52.50;97180.19;10455621;28;20275;-56
2022/04/17 16:25:19;;;;;;;2.83;1.97;;;;;;;10.68;54.14;97208.56;10455695;28;20199;-58
2022/04/17 16:30:21;;;;;;;4.95;2.22;;;;;;;10.75;52.92;97198.34;10455372;28;20223;-56
2022/04/17 16:35:21;;;;;;;2.53;1.83;;;;;;;10.48;53.48;97183.44;10454842;28;20234;-58
2022/04/17 16:40:22;;;;;;;2.83;2.00;;;;;;;10.38;53.17;97170.34;10455178;28;20236;-57
2022/04/17 16:45:22;;;;;;;3.43;2.13;;;;;;;10.24;53.06;97170.81;10454796;28;20198;-59
2022/04/17 16:50:22;;;;;;;4.17;2.07;;;;;;;10.06;55.63;97220.44;10455080;28;20553;-57
2022/04/17 16:55:23;;;;;;;3.77;2.47;;;;;;;9.87;55.85;97218.69;10453359;28;20284;-57
2022/04/17 17:00:24;;;;;;;4.50;2.50;;;;;;;10.03;56.34;97237.28;10454616;28;20556;-57
2022/04/17 17:05:25;;;;;;;4.10;2.13;;;;;;;10.21;54.13;97184.19;10454166;28;20203;-56
2022/04/17 17:10:25;;;;;;;2.83;1.87;;;;;;;9.92;54.46;97180.69;10453862;28;20216;-59
2022/04/17 17:15:26;;;;;;;3.73;2.43;;;;;;;9.82;55.47;97206.03;10452814;28;20214;-59
2022/04/17 17:20:28;;;;;;;4.27;2.43;;;;;;;9.66;56.05;97213.59;10453542;28;20188;-59
2022/04/17 17:25:28;;;;;;;4.37;2.13;;;;;;;9.50;57.05;97235.91;10453623;28;20195;-58
2022/04/17 17:30:29;;;;;;;6.63;3.10;;;;;;;9.23;58.51;97263.56;10453169;28;20215;-59
2022/04/17 17:35:29;;;;;;;3.63;3.00;;;;;;;9.10;57.50;97232.41;10452758;28;20186;-60
2022/04/17 17:40:30;;;;;;;5.43;2.73;;;;;;;8.80;60.08;97293.38;10452650;28;20737;-61
2022/04/17 17:45:32;;;;;;;9.57;4.83;;;;;;;7.98;63.52;97341.06;10452132;28;20194;-59
2022/04/17 17:50:32;;;;;;;18.53;11.53;;;;;;;7.13;66.70;97395.47;10447692;28;20247;-55
2022/04/17 17:55:32;;;;;;;11.37;5.23;;;;;;;6.74;68.14;97399.34;10451868;28;20237;-56
2022/04/17 18:00:35;;;;;;;3.77;2.50;;;;;;;6.34;71.36;97420.50;10452515;28;20180;-58
2022/04/17 18:05:36;;;;;;;5.73;2.60;;;;;;;5.82;74.11;97402.53;10451459;28;20199;-52
2022/04/17 18:15:57;;;;;;;5.30;3.07;;;;;;;5.07;81.70;97386.97;10447103;28;20298;-57
2022/04/17 18:20:57;;;;;;;7.00;3.10;;;;;;;5.00;84.71;97387.41;10451428;28;20191;-57
2022/04/17 18:25:57;;;;;;;6.40;3.30;;;;;;;4.77;87.65;97382.94;10450895;28;20215;-55
2022/04/17 18:30:58;;;;;;;6.50;3.00;;;;;;;4.55;91.77;97386.13;10451219;28;20223;-58
2022/04/17 18:35:58;;;;;;;8.97;4.37;;;;;;;4.33;96.52;97397.13;10450251;28;20285;-59
2022/04/17 18:41:00;;;;;;;6.93;3.87;;;;;;;4.08;98.73;97398.72;10451010;28;20194;-59
2022/04/17 18:46:00;;;;;;;5.03;3.03;;;;;;;3.99;100.00;97397.53;10450555;28;20301;-59
2022/04/17 18:51:00;;;;;;;5.90;3.10;;;;;;;3.82;100.00;97392.59;10450721;28;20306;-61
2022/04/17 18:56:01;;;;;;;5.30;3.07;;;;;;;3.68;100.00;97388.31;10450377;28;20222;-57
2022/04/17 19:01:01;;;;;;;4.23;2.90;;;;;;;3.48;100.00;97394.72;10467129;28;20191;-57
2022/04/17 19:06:02;;;;;;;4.73;2.70;;;;;;;3.37;100.00;97392.81;10488455;28;20295;-57
2022/04/17 19:16:21;;;;;;;4.23;2.80;;;;;;;2.90;100.00;97371.47;10487946;28;20214;-56
2022/04/17 19:21:21;;;;;;;5.37;3.10;;;;;;;2.75;100.00;97368.03;10495530;28;20183;-52
2022/04/17 19:26:22;;;;;;;3.10;2.77;;;;;;;2.65;100.00;97359.19;10497168;28;20286;-54
2022/04/17 19:36:41;;;;;;;7.03;3.90;;;;;;;2.32;100.00;97350.72;10497984;28;20234;-52
2022/04/17 19:41:42;;;;;;;6.83;3.90;;;;;;;2.26;100.00;97347.66;10475425;28;20183;-56
2022/04/17 19:46:42;;;;;;;5.07;3.30;;;;;;;2.18;100.00;97348.09;10456734;28;20279;-54
2022/04/17 19:51:42;;;;;;;4.50;2.80;;;;;;;2.09;100.00;97346.03;10456772;28;20360;-55
2022/04/17 19:56:43;;;;;;;7.10;3.30;;;;;;;1.97;100.00;97342.41;10456790;28;20211;-52
2022/04/17 20:01:43;;;;;;;3.60;2.80;;;;;;;1.82;100.00;97341.50;10456472;28;20191;-59
2022/04/17 20:06:44;;;;;;;6.80;3.00;;;;;;;1.79;100.00;97336.53;10456331;28;20714;-53
2022/04/17 20:11:44;;;;;;;6.57;3.17;;;;;;;1.75;100.00;97337.63;10456109;28;20214;-54
2022/04/17 20:16:45;;;;;;;4.90;2.17;;;;;;;1.63;100.00;97331.41;10454825;28;20203;-58
2022/04/17 20:21:46;;;;;;;5.17;2.80;;;;;;;1.55;100.00;97331.81;10453174;28;20249;-52
2022/04/17 20:26:47;;;;;;;3.40;2.67;;;;;;;1.51;100.00;97320.00;10455466;28;20268;-53
2022/04/17 20:31:47;;;;;;;3.23;2.47;;;;;;;1.36;100.00;97316.53;10455321;28;20592;-52
2022/04/17 20:36:47;;;;;;;4.37;3.00;;;;;;;1.24;100.00;97319.75;10458416;28;20279;-55
2022/04/17 20:41:48;;;;;;;3.87;2.50;;;;;;;1.16;100.00;97317.59;10491828;28;20265;-58
2022/04/17 20:52:07;;;;;;;5.20;2.70;;;;;;;1.05;100.00;97309.59;10492717;28;20218;-58
2022/04/17 20:57:07;;;;;;;3.07;2.47;;;;;;;0.97;100.00;97299.69;10495646;28;20214;-52
2022/04/17 21:02:08;;;;;;;3.50;2.47;;;;;;;0.88;100.00;97292.44;10496000;28;20191;-56
2022/04/17 21:07:08;;;;;;;2.97;2.67;;;;;;;0.82;100.00;97292.78;10495843;28;20244;-52
2022/04/17 21:12:09;;;;;;;4.07;2.80;;;;;;;0.81;100.00;97293.69;10495392;28;20724;-53
2022/04/17 21:17:09;;;;;;;1.47;1.37;;;;;;;0.75;100.00;97283.69;10495245;28;20689;-53
2022/04/17 21:22:09;;;;;;;3.13;2.03;;;;;;;0.68;100.00;97280.63;10495593;28;20203;-53
2022/04/17 21:27:10;;;;;;;2.20;2.00;;;;;;;0.61;100.00;97280.09;10494596;28;20269;-52
2022/04/17 21:32:10;;;;;;;3.63;2.83;;;;;;;0.51;100.00;97277.19;10495053;28;20225;-52
2022/04/17 21:37:11;;;;;;;3.73;2.50;;;;;;;0.48;100.00;97272.19;10493929;28;20250;-53
2022/04/17 21:42:12;;;;;;;6.03;2.77;;;;;;;0.41;100.00;97264.84;10493363;28;20241;-52
2022/04/17 21:47:17;;;;;;;3.73;2.50;;;;;;;0.51;100.00;97268.63;10493180;28;20238;-56
2022/04/17 21:52:17;;;;;;;3.70;2.70;;;;;;;0.45;100.00;97266.38;10494070;28;20211;-52
2022/04/17 21:57:18;;;;;;;3.00;2.63;;;;;;;0.47;100.00;97262.78;10493990;28;20237;-52
2022/04/17 22:07:37;;;;;;;3.33;2.70;;;;;;;0.34;100.00;97251.47;10492800;28;20215;-54
2022/04/17 22:12:37;;;;;;;2.17;1.90;;;;;;;0.29;100.00;97259.44;10493314;28;20191;-54
2022/04/17 22:17:37;;;;;;;4.03;2.73;;;;;;;0.20;100.00;97256.47;10492776;28;20219;-52
2022/04/17 22:22:39;;;;;;;2.53;2.23;;;;;;;0.21;100.00;97258.16;10492888;28;20192;-52
2022/04/17 22:27:39;;;;;;;4.23;2.70;;;;;;;0.19;100.00;97258.22;10492839;28;20225;-52
2022/04/17 22:32:40;;;;;;;2.97;2.40;;;;;;;0.14;100.00;97249.91;10492547;28;20286;-51
2022/04/17 22:37:40;;;;;;;5.93;2.80;;;;;;;0.18;100.00;97253.97;10492032;28;20324;-53
2022/04/17 22:42:41;;;;;;;4.37;2.03;;;;;;;0.13;100.00;97254.22;10492360;28;20203;-51
2022/04/17 22:47:42;;;;;;;5.47;2.37;;;;;;;0.11;100.00;97250.91;10492319;28;20199;-53
2022/04/17 22:52:42;;;;;;;2.67;2.47;;;;;;;0.02;100.00;97251.38;10494837;28;20222;-53
2022/04/17 22:57:42;;;;;;;2.93;2.30;;;;;;;0.01;100.00;97241.13;10500296;28;20203;-52
2022/04/17 23:02:43;;;;;;;4.20;2.73;;;;;;;-0.09;100.00;97233.88;10500537;28;20191;-54
2022/04/17 23:07:43;;;;;;;2.27;2.10;;;;;;;-0.08;100.00;97239.84;10499676;28;20245;-53
2022/04/17 23:12:43;;;;;;;1.93;1.77;;;;;;;-0.10;100.00;97257.97;10500106;28;20195;-52
2022/04/17 23:17:44;;;;;;;2.17;1.97;;;;;;;-0.18;100.00;97234.34;10499403;28;20207;-51
2022/04/17 23:22:44;;;;;;;2.13;1.93;;;;;;;-0.26;100.00;97236.44;10499432;28;20198;-52
2022/04/17 23:27:44;;;;;;;2.10;1.90;;;;;;;-0.22;100.00;97227.66;10499087;28;20211;-53
2022/04/17 23:32:45;;;;;;;2.23;2.03;;;;;;;-0.23;100.00;97220.84;10498962;28;20199;-55
2022/04/17 23:37:45;;;;;;;2.83;2.40;;;;;;;-0.32;100.00;97224.75;10498365;28;20770;-52
2022/04/17 23:42:45;;;;;;;3.90;2.23;;;;;;;-0.34;100.00;97218.00;10498685;28;20741;-53
2022/04/17 23:47:46;;;;;;;2.70;2.50;;;;;;;-0.40;100.00;97214.81;10498381;28;20693;-51
2022/04/17 23:52:46;;;;;;;4.00;3.03;;;;;;;-0.38;100.00;97214.75;10498402;28;20249;-52
2022/04/17 23:57:47;;;;;;;2.33;2.13;;;;;;;-0.40;100.00;97209.69;10492906;28;20264;-51
